Time;durP1;ratioP1;P1;durP2;ratioP2;P2;SDS_P1;SDS_P2;PMS_P1;PMS_P2;Temp;Humidity;BMP_temperature;BMP_pressure;BME280_temperature;BME280_humidity;BME280_pressure;Samples;Min_cycle;Max_cycle;Signal;HPM_P1;HPM_P2
2023/03/08 00:01:12;;;;;;;12.20;6.22;;;5.40;58.70;;;;;;4930772;28;20090;-55
2023/03/08 00:03:39;;;;;;;8.75;5.40;;;5.40;58.70;;;;;;4928063;29;20051;-57
2023/03/08 00:06:07;;;;;;;8.90;5.97;;;5.40;58.60;;;;;;4924236;29;20056;-57
2023/03/08 00:08:35;;;;;;;8.95;5.57;;;5.40;58.60;;;;;;4936318;29;20051;-56
2023/03/08 00:11:05;;;;;;;8.90;5.68;;;5.40;58.60;;;;;;4931885;28;20597;-56
2023/03/08 00:13:34;;;;;;;7.85;4.80;;;5.40;58.60;;;;;;4933473;28;20495;-57
2023/03/08 00:16:02;;;;;;;8.50;5.55;;;5.40;58.60;;;;;;4927890;28;20059;-57
2023/03/08 00:18:29;;;;;;;9.32;5.60;;;5.40;58.60;;;;;;4933798;28;20052;-55
2023/03/08 00:21:00;;;;;;;10.88;6.70;;;5.40;58.60;;;;;;4925024;29;20059;-56
2023/03/08 00:23:27;;;;;;;9.82;5.97;;;5.40;58.60;;;;;;4930569;28;20441;-56
2023/03/08 00:25:55;;;;;;;9.57;5.95;;;5.40;58.60;;;;;;4935420;28;20075;-56
2023/03/08 00:28:22;;;;;;;11.23;5.45;;;5.40;58.60;;;;;;4926407;28;20070;-57
2023/03/08 00:30:57;;;;;;;8.90;5.22;;;5.40;58.60;;;;;;4931964;28;20059;-55
2023/03/08 00:33:24;;;;;;;9.50;6.13;;;5.40;58.60;;;;;;4937588;28;20066;-56
2023/03/08 00:35:56;;;;;;;12.00;5.45;;;5.40;58.60;;;;;;4940492;29;20051;-54
2023/03/08 00:38:23;;;;;;;8.40;5.75;;;5.50;58.60;;;;;;4938698;29;20516;-57
2023/03/08 00:40:50;;;;;;;10.68;5.43;;;5.40;58.50;;;;;;4928838;28;20059;-56
2023/03/08 00:43:17;;;;;;;8.55;5.40;;;5.40;58.50;;;;;;4935182;28;20063;-56
2023/03/08 00:45:44;;;;;;;9.63;5.70;;;5.50;58.50;;;;;;4932315;29;20086;-57
2023/03/08 00:48:13;;;;;;;8.52;5.18;;;5.50;58.60;;;;;;4929436;29;20056;-56
2023/03/08 00:50:41;;;;;;;8.93;5.70;;;5.50;59.10;;;;;;4937126;28;20054;-58
2023/03/08 00:53:08;;;;;;;8.65;5.65;;;5.50;58.60;;;;;;4936556;28;20491;-56
2023/03/08 00:55:35;;;;;;;9.00;6.03;;;5.50;58.60;;;;;;4936371;28;20078;-57
2023/03/08 00:58:02;;;;;;;10.43;5.88;;;5.50;58.60;;;;;;4932279;29;20055;-57
2023/03/08 01:00:30;;;;;;;10.00;6.47;;;5.50;58.60;;;;;;4931689;28;20081;-57
2023/03/08 01:02:58;;;;;;;9.23;5.97;;;5.60;58.60;;;;;;4933488;28;20067;-57
2023/03/08 01:05:26;;;;;;;7.25;5.50;;;5.60;58.60;;;;;;4933442;28;20060;-56
2023/03/08 01:07:53;;;;;;;9.32;5.70;;;5.60;58.60;;;;;;4933653;28;20166;-56
2023/03/08 01:10:21;;;;;;;10.63;5.93;;;5.60;58.50;;;;;;4932363;28;20047;-57
2023/03/08 01:12:48;;;;;;;11.07;6.50;;;5.60;58.50;;;;;;4928957;29;20074;-57
2023/03/08 01:15:15;;;;;;;10.05;6.57;;;5.60;58.40;;;;;;4928317;29;20067;-57
2023/03/08 01:17:42;;;;;;;9.30;6.53;;;5.60;58.40;;;;;;4929400;29;20059;-57
2023/03/08 01:20:11;;;;;;;9.77;6.72;;;5.70;58.40;;;;;;4927407;29;20048;-57
2023/03/08 01:22:39;;;;;;;10.75;6.57;;;5.70;58.40;;;;;;4935438;28;20391;-56
2023/03/08 01:25:07;;;;;;;9.25;6.28;;;5.60;58.40;;;;;;4936887;28;20064;-56
2023/03/08 01:27:34;;;;;;;7.85;5.53;;;5.60;58.40;;;;;;4930835;29;20062;-56
2023/03/08 01:30:02;;;;;;;10.27;7.13;;;5.70;58.40;;;;;;4927406;28;20070;-57
2023/03/08 01:32:29;;;;;;;10.85;6.93;;;5.70;58.30;;;;;;4930148;29;20062;-56
2023/03/08 01:35:00;;;;;;;10.95;6.65;;;5.70;58.40;;;;;;4930001;29;20419;-57
2023/03/08 01:37:28;;;;;;;12.10;7.57;;;5.70;58.30;;;;;;4933426;28;20356;-56
2023/03/08 01:39:56;;;;;;;11.85;8.07;;;5.70;58.20;;;;;;4928852;28;20066;-56
2023/03/08 01:42:24;;;;;;;10.55;7.40;;;5.70;58.20;;;;;;4926749;28;20051;-57
2023/03/08 01:44:53;;;;;;;12.18;8.00;;;5.70;58.20;;;;;;4934782;29;20051;-56
2023/03/08 01:47:22;;;;;;;13.13;7.85;;;5.70;58.10;;;;;;4931489;28;20583;-57
2023/03/08 01:49:50;;;;;;;10.43;6.85;;;5.70;58.10;;;;;;4931628;28;20051;-57
2023/03/08 01:52:21;;;;;;;12.13;7.60;;;5.70;58.10;;;;;;4936032;28;20047;-57
2023/03/08 01:54:51;;;;;;;12.27;8.20;;;5.70;58.20;;;;;;4928051;28;20060;-55
2023/03/08 01:57:23;;;;;;;10.48;6.93;;;5.70;58.20;;;;;;4940180;28;20056;-57
2023/03/08 01:59:53;;;;;;;13.05;8.68;;;5.70;58.20;;;;;;4934510;28;20060;-57
2023/03/08 02:02:24;;;;;;;13.35;8.02;;;5.70;58.20;;;;;;4930637;28;20055;-56
2023/03/08 02:04:52;;;;;;;14.07;8.02;;;5.70;58.20;;;;;;4930735;29;20058;-56
2023/03/08 02:07:19;;;;;;;13.40;8.57;;;5.70;58.20;;;;;;4931695;29;20447;-56
2023/03/08 02:09:47;;;;;;;12.70;8.45;;;5.70;58.20;;;;;;4934851;28;20078;-55
2023/03/08 02:12:15;;;;;;;13.35;8.63;;;5.70;58.20;;;;;;4931561;29;20048;-55
2023/03/08 02:14:44;;;;;;;15.80;8.68;;;5.70;58.20;;;;;;4929385;28;20051;-56
2023/03/08 02:17:12;;;;;;;13.25;8.77;;;5.70;58.20;;;;;;4927834;28;20070;-56
2023/03/08 02:19:44;;;;;;;14.38;9.38;;;5.70;58.10;;;;;;4939189;29;20051;-55
2023/03/08 02:22:14;;;;;;;14.25;9.57;;;5.70;58.10;;;;;;4935018;29;20070;-57
2023/03/08 02:24:43;;;;;;;15.32;9.90;;;5.80;58.20;;;;;;4931941;28;20051;-56
2023/03/08 02:27:14;;;;;;;14.45;9.02;;;5.70;58.10;;;;;;4927852;28;20056;-57
2023/03/08 02:29:41;;;;;;;15.43;9.40;;;5.70;58.10;;;;;;4929021;29;20056;-57
2023/03/08 02:32:09;;;;;;;12.60;8.85;;;5.70;58.10;;;;;;4929920;28;20063;-57
2023/03/08 02:34:36;;;;;;;13.90;8.80;;;5.70;58.10;;;;;;4930615;28;20050;-56
2023/03/08 02:37:03;;;;;;;15.07;10.02;;;5.70;58.10;;;;;;4928947;28;20063;-56
2023/03/08 02:39:31;;;;;;;14.15;9.18;;;5.70;58.10;;;;;;4930688;28;20055;-55
2023/03/08 02:41:59;;;;;;;16.33;9.07;;;5.70;58.10;;;;;;4935772;29;20051;-56
2023/03/08 02:44:27;;;;;;;15.73;9.82;;;5.80;58.10;;;;;;4927880;28;20060;-57
2023/03/08 02:46:54;;;;;;;15.10;9.00;;;5.80;58.10;;;;;;4931336;29;20055;-57
2023/03/08 02:49:21;;;;;;;14.05;8.45;;;5.80;58.10;;;;;;4929236;28;21170;-47
2023/03/08 02:51:48;;;;;;;13.77;9.20;;;5.80;58.10;;;;;;4927220;28;20063;-48
2023/03/08 02:54:15;;;;;;;14.23;9.50;;;5.80;58.10;;;;;;4926585;29;20066;-56
2023/03/08 02:56:42;;;;;;;16.42;9.90;;;5.80;58.10;;;;;;4927191;29;20062;-57
2023/03/08 02:59:11;;;;;;;13.57;8.70;;;5.80;58.10;;;;;;4926662;29;20539;-57
2023/03/08 03:01:38;;;;;;;12.32;8.27;;;5.80;58.10;;;;;;4933530;28;20055;-56
2023/03/08 03:04:06;;;;;;;15.50;9.65;;;5.80;58.00;;;;;;4933006;29;20051;-56
2023/03/08 03:06:34;;;;;;;13.25;9.00;;;5.80;58.00;;;;;;4938633;28;20051;-57
2023/03/08 03:09:01;;;;;;;12.57;8.25;;;5.80;58.00;;;;;;4931518;28;20051;-57
2023/03/08 03:11:28;;;;;;;14.10;9.05;;;5.80;58.00;;;;;;4935382;29;20392;-57
2023/03/08 03:13:57;;;;;;;13.52;9.02;;;5.80;58.00;;;;;;4930749;29;20047;-57
2023/03/08 03:16:26;;;;;;;16.30;10.15;;;5.80;58.00;;;;;;4932511;28;20077;-57
2023/03/08 03:18:54;;;;;;;14.48;9.38;;;5.80;58.00;;;;;;4927641;29;20416;-57
2023/03/08 03:21:23;;;;;;;14.25;9.18;;;5.80;57.90;;;;;;4939709;28;20495;-57
2023/03/08 03:23:50;;;;;;;14.93;9.10;;;5.80;57.90;;;;;;4934539;28;21181;-57
2023/03/08 03:26:20;;;;;;;15.32;9.30;;;5.80;57.90;;;;;;4927205;29;20590;-56
2023/03/08 03:28:47;;;;;;;14.77;9.07;;;5.80;57.90;;;;;;4928083;29;20070;-57
2023/03/08 03:31:17;;;;;;;15.57;10.00;;;5.80;57.90;;;;;;4929841;29;20545;-57
2023/03/08 03:33:46;;;;;;;16.50;10.20;;;5.80;57.90;;;;;;4926614;28;20056;-56
2023/03/08 03:36:16;;;;;;;17.92;9.82;;;5.80;57.90;;;;;;4930319;28;20063;-57
2023/03/08 03:38:44;;;;;;;14.35;9.00;;;5.80;57.90;;;;;;4936002;28;20058;-56
2023/03/08 03:41:12;;;;;;;13.40;8.70;;;5.80;57.90;;;;;;4928202;28;20400;-57
2023/03/08 03:43:40;;;;;;;12.15;7.80;;;5.80;57.80;;;;;;4933094;29;20066;-58
2023/03/08 03:46:10;;;;;;;12.02;7.40;;;5.80;57.80;;;;;;4929322;28;20411;-57
2023/03/08 03:48:38;;;;;;;12.48;7.65;;;5.80;57.80;;;;;;4934551;29;20059;-56
2023/03/08 03:51:09;;;;;;;12.02;7.10;;;5.80;57.80;;;;;;4930759;28;20059;-57
2023/03/08 03:53:37;;;;;;;12.55;8.07;;;5.80;57.80;;;;;;4928568;29;20047;-55
2023/03/08 03:56:05;;;;;;;14.50;9.30;;;5.80;57.70;;;;;;4962122;23;20059;-92
2023/03/08 03:58:42;;;;;;;16.33;9.35;;;5.80;57.80;;;;;;4946884;28;20058;-91
2023/03/08 04:01:10;;;;;;;15.20;9.82;;;5.80;57.80;;;;;;4942966;28;20077;-90
2023/03/08 04:03:37;;;;;;;16.50;10.38;;;5.80;57.70;;;;;;4950405;28;20058;-92
2023/03/08 04:06:12;;;;;;;20.08;10.48;;;5.80;57.70;;;;;;4946661;28;20061;-91
2023/03/08 04:08:41;;;;;;;16.40;10.20;;;5.80;57.70;;;;;;4946714;28;20051;-88
2023/03/08 04:11:09;;;;;;;18.98;11.15;;;5.80;57.70;;;;;;4946265;28;20066;-91
2023/03/08 04:13:36;;;;;;;15.90;10.15;;;5.80;57.70;;;;;;4950603;28;20067;-88
2023/03/08 04:16:10;;;;;;;16.48;9.80;;;5.80;57.70;;;;;;4953992;28;21186;-89
2023/03/08 04:18:42;;;;;;;15.77;9.88;;;5.80;57.70;;;;;;4947106;28;20487;-89
2023/03/08 04:21:12;;;;;;;16.88;10.00;;;5.80;57.70;;;;;;4947917;28;20051;-88
2023/03/08 04:23:39;;;;;;;17.50;10.40;;;5.80;57.70;;;;;;4946901;28;20051;-90
2023/03/08 04:26:07;;;;;;;14.73;8.85;;;5.80;57.70;;;;;;4946016;28;20058;-90
2023/03/08 04:28:35;;;;;;;15.20;9.10;;;5.70;57.70;;;;;;4952856;28;20053;-91
2023/03/08 04:31:12;;;;;;;16.13;9.40;;;5.80;57.70;;;;;;4955084;28;20055;-91
2023/03/08 04:33:39;;;;;;;13.68;9.10;;;5.70;57.60;;;;;;4953361;28;20055;-90
2023/03/08 04:36:07;;;;;;;14.60;8.95;;;5.80;57.70;;;;;;4946946;28;20066;-90
2023/03/08 04:38:36;;;;;;;12.52;7.85;;;5.70;57.60;;;;;;4946583;28;20411;-88
2023/03/08 04:41:09;;;;;;;13.82;8.48;;;5.70;57.70;;;;;;4945890;28;20059;-89
2023/03/08 04:43:37;;;;;;;16.30;9.05;;;5.70;58.00;;;;;;4947760;28;20051;-88
2023/03/08 04:46:05;;;;;;;11.88;7.50;;;5.70;57.70;;;;;;4946440;28;20059;-90
2023/03/08 04:48:33;;;;;;;11.30;7.65;;;5.70;57.70;;;;;;4951526;28;20066;-88
2023/03/08 04:51:02;;;;;;;13.73;8.23;;;5.70;57.70;;;;;;4964974;28;20487;-88
2023/03/08 04:53:30;;;;;;;11.65;7.50;;;5.70;57.70;;;;;;4967842;28;20061;-93
2023/03/08 04:56:00;;;;;;;11.07;6.88;;;5.70;57.70;;;;;;4963580;28;20055;-91
2023/03/08 04:58:28;;;;;;;10.18;6.55;;;5.70;57.70;;;;;;4963793;28;20062;-89
2023/03/08 05:01:00;;;;;;;10.60;6.82;;;5.70;57.70;;;;;;4962298;28;20051;-89
2023/03/08 05:03:27;;;;;;;15.40;8.07;;;5.70;57.70;;;;;;4952004;28;20051;-89
2023/03/08 05:05:56;;;;;;;11.85;7.43;;;5.70;58.20;;;;;;4963564;28;20039;-89
2023/03/08 05:08:24;;;;;;;12.32;8.23;;;5.70;57.70;;;;;;4964008;28;20195;-93
2023/03/08 05:10:56;;;;;;;14.80;8.50;;;5.70;57.80;;;;;;4967805;28;20035;-88
2023/03/08 05:13:28;;;;;;;12.15;7.95;;;5.70;57.80;;;;;;4966234;28;20065;-93
2023/03/08 05:15:55;;;;;;;13.25;8.07;;;5.70;57.70;;;;;;4949533;28;20062;-94
2023/03/08 05:18:23;;;;;;;35.13;17.63;;;5.70;57.80;;;;;;4947622;28;20061;-93
2023/03/08 05:20:55;;;;;;;43.83;19.88;;;5.70;57.80;;;;;;4948674;28;20051;-93
2023/03/08 05:23:23;;;;;;;23.45;11.73;;;5.70;57.80;;;;;;4948806;28;20055;-93
2023/03/08 05:25:53;;;;;;;16.33;9.65;;;5.70;57.80;;;;;;4943847;28;20066;-94
2023/03/08 05:28:22;;;;;;;11.82;7.88;;;5.70;57.80;;;;;;4946834;28;20055;-88
2023/03/08 05:30:51;;;;;;;12.25;7.95;;;5.70;57.80;;;;;;4948190;28;20054;-90
2023/03/08 05:33:18;;;;;;;11.55;7.63;;;5.70;57.80;;;;;;4940121;28;20066;-93
2023/03/08 05:35:54;;;;;;;11.73;7.38;;;5.70;57.80;;;;;;4946567;28;20059;-95
2023/03/08 05:38:21;;;;;;;11.30;7.30;;;5.70;57.80;;;;;;4944912;28;20059;-91
2023/03/08 05:40:49;;;;;;;10.80;7.45;;;5.70;57.80;;;;;;4952246;28;20423;-94
2023/03/08 05:43:17;;;;;;;11.07;6.85;;;5.70;58.20;;;;;;4941659;28;20058;-88
2023/03/08 05:45:55;;;;;;;43.17;17.55;;;5.70;57.80;;;;;;4941838;28;20062;-92
2023/03/08 05:48:23;;;;;;;88.82;31.70;;;5.70;57.70;;;;;;4952455;28;20787;-91
2023/03/08 05:50:51;;;;;;;33.55;14.98;;;5.70;57.70;;;;;;4948262;28;20059;-89
2023/03/08 05:53:27;;;;;;;17.50;8.50;;;5.70;57.80;;;;;;4944624;28;20054;-92
2023/03/08 05:55:55;;;;;;;12.18;7.10;;;5.70;57.70;;;;;;4945605;28;20063;-90
2023/03/08 05:58:22;;;;;;;10.10;5.97;;;5.70;57.80;;;;;;4950378;28;20047;-90
2023/03/08 06:00:50;;;;;;;8.57;5.57;;;5.70;57.80;;;;;;4950552;28;20414;-91
2023/03/08 06:03:19;;;;;;;9.88;5.78;;;5.70;57.80;;;;;;4945598;28;20644;-92
2023/03/08 06:05:49;;;;;;;10.32;5.90;;;5.70;57.80;;;;;;4940032;28;20422;-93
2023/03/08 06:08:39;;;;;;;8.18;5.85;;;5.70;57.80;;;;;;4943598;28;20410;-93
2023/03/08 06:11:16;;;;;;;63.25;23.05;;;5.70;57.80;;;;;;4941884;28;20066;-93
2023/03/08 06:13:45;;;;;;;22.52;11.18;;;5.70;57.70;;;;;;4953480;28;20063;-91
2023/03/08 06:16:14;;;;;;;14.73;7.80;;;5.70;57.80;;;;;;4945311;28;20063;-93
2023/03/08 06:18:45;;;;;;;8.75;6.30;;;5.70;57.80;;;;;;4945724;28;20059;-94
2023/03/08 06:21:32;;;;;;;8.85;5.85;;;5.70;57.80;;;;;;4944782;28;20368;-93
2023/03/08 06:23:59;;;;;;;8.63;6.15;;;5.70;57.80;;;;;;4943555;28;20502;-92
2023/03/08 06:26:26;;;;;;;9.93;7.18;;;5.70;57.90;;;;;;4947521;28;20396;-92
2023/03/08 06:28:54;;;;;;;10.10;6.47;;;5.70;57.80;;;;;;4940760;28;20061;-93
2023/03/08 06:31:21;;;;;;;9.15;6.63;;;5.70;57.80;;;;;;4944635;28;20059;-92
2023/03/08 06:33:50;;;;;;;8.93;6.50;;;5.70;57.90;;;;;;4946535;28;20066;-91
2023/03/08 06:36:23;;;;;;;9.85;6.63;;;5.70;57.90;;;;;;4957645;28;20085;-95
2023/03/08 06:38:51;;;;;;;9.23;7.00;;;5.70;58.00;;;;;;4955137;28;20063;-95
2023/03/08 06:41:34;;;;;;;10.73;7.65;;;5.70;58.00;;;;;;4960871;28;20062;-96
2023/03/08 06:50:19;;;;;;;9.93;7.30;;;5.70;58.10;;;;;;4971152;28;20027;-46
2023/03/08 06:53:20;;;;;;;10.85;7.88;;;5.70;58.10;;;;;;4972909;28;20066;-46
2023/03/08 06:55:49;;;;;;;10.45;8.18;;;5.70;58.20;;;;;;4965338;28;20055;-46
2023/03/08 06:58:20;;;;;;;10.55;8.23;;;5.70;58.20;;;;;;4960598;28;20059;-48
2023/03/08 07:00:58;;;;;;;13.02;8.68;;;5.70;58.20;;;;;;4960176;28;20057;-48
2023/03/08 07:03:26;;;;;;;10.43;7.10;;;5.70;58.20;;;;;;4960582;28;20070;-50
2023/03/08 07:05:58;;;;;;;11.68;8.35;;;5.70;58.30;;;;;;4960881;28;20046;-46
2023/03/08 07:08:26;;;;;;;12.13;9.00;;;5.70;58.40;;;;;;4959255;28;20058;-50
2023/03/08 07:10:53;;;;;;;12.68;8.82;;;5.70;58.40;;;;;;4956583;28;20058;-47
2023/03/08 07:13:22;;;;;;;13.93;9.00;;;5.70;58.40;;;;;;4959833;28;20059;-47
2023/03/08 07:15:49;;;;;;;10.27;8.00;;;5.70;58.40;;;;;;4959212;28;20410;-49
2023/03/08 07:18:16;;;;;;;13.82;10.02;;;5.70;58.50;;;;;;4958202;28;20061;-46
2023/03/08 07:20:44;;;;;;;11.60;8.55;;;5.70;58.60;;;;;;4962160;28;20438;-45
2023/03/08 07:23:12;;;;;;;12.27;8.60;;;5.70;58.60;;;;;;4960836;28;21233;-47
2023/03/08 07:25:39;;;;;;;13.93;9.85;;;5.70;58.70;;;;;;4961244;28;20463;-52
2023/03/08 07:28:07;;;;;;;11.13;8.52;;;5.70;58.70;;;;;;4962251;28;20062;-47
2023/03/08 07:30:34;;;;;;;13.65;8.90;;;5.80;58.80;;;;;;4960317;28;20521;-50
2023/03/08 07:33:01;;;;;;;10.95;8.32;;;5.80;58.80;;;;;;4959090;28;20055;-47
2023/03/08 07:35:28;;;;;;;11.30;8.43;;;5.80;58.80;;;;;;4960327;28;20391;-48
2023/03/08 07:37:55;;;;;;;12.95;9.40;;;5.80;58.80;;;;;;4958901;28;20050;-48
2023/03/08 07:40:24;;;;;;;13.27;9.52;;;5.80;58.80;;;;;;4962691;28;20066;-50
2023/03/08 07:42:51;;;;;;;12.32;8.75;;;5.80;58.80;;;;;;4960332;28;20055;-47
2023/03/08 07:45:19;;;;;;;13.48;8.98;;;5.90;58.80;;;;;;4963556;28;20082;-47
2023/03/08 07:47:46;;;;;;;11.80;8.70;;;5.90;58.80;;;;;;4961480;28;20395;-51
2023/03/08 07:50:13;;;;;;;15.13;9.85;;;5.90;58.80;;;;;;4961047;28;20129;-52
2023/03/08 07:52:40;;;;;;;14.75;9.40;;;5.90;58.70;;;;;;4958637;28;20046;-49
2023/03/08 07:55:10;;;;;;;12.15;8.57;;;5.90;58.70;;;;;;4960698;28;20054;-51
2023/03/08 07:57:38;;;;;;;12.15;8.40;;;5.90;58.80;;;;;;4959105;28;20065;-50
2023/03/08 08:00:07;;;;;;;12.02;7.97;;;5.90;58.70;;;;;;4960748;28;20058;-47
2023/03/08 08:02:35;;;;;;;46.78;19.95;;;5.90;58.80;;;;;;4962118;28;20103;-49
2023/03/08 08:05:03;;;;;;;22.92;12.20;;;5.90;58.80;;;;;;4959358;28;20066;-52
2023/03/08 08:07:31;;;;;;;15.25;9.18;;;6.00;58.80;;;;;;4963653;28;20161;-46
2023/03/08 08:09:58;;;;;;;12.98;8.55;;;6.00;58.80;;;;;;4962997;28;20065;-53
2023/03/08 08:12:26;;;;;;;11.77;7.82;;;6.00;58.80;;;;;;4961632;28;20059;-48
2023/03/08 08:14:54;;;;;;;10.18;7.50;;;6.00;58.80;;;;;;4960080;28;20070;-45
2023/03/08 08:17:23;;;;;;;11.70;7.68;;;6.00;58.80;;;;;;4961096;28;20090;-49
2023/03/08 08:19:50;;;;;;;14.55;8.88;;;6.00;58.80;;;;;;4958501;28;20426;-49
2023/03/08 08:22:17;;;;;;;12.50;8.35;;;6.00;58.70;;;;;;4960018;28;20153;-46
2023/03/08 08:24:45;;;;;;;11.38;7.68;;;6.10;58.80;;;;;;4959592;28;20058;-47
2023/03/08 08:27:12;;;;;;;11.77;7.53;;;6.10;58.70;;;;;;4962222;28;20058;-46
2023/03/08 08:29:39;;;;;;;15.00;8.85;;;6.10;58.70;;;;;;4962459;28;20415;-51
2023/03/08 08:32:08;;;;;;;12.70;8.50;;;6.10;58.80;;;;;;4957124;28;20063;-49
2023/03/08 08:34:35;;;;;;;11.95;7.88;;;6.10;58.80;;;;;;4962263;28;20911;-45
2023/03/08 08:37:03;;;;;;;14.23;8.15;;;6.10;58.80;;;;;;4962046;28;20490;-46
2023/03/08 08:39:30;;;;;;;13.30;9.07;;;6.20;58.80;;;;;;4961271;28;20054;-46
2023/03/08 08:41:59;;;;;;;16.02;10.30;;;6.20;58.80;;;;;;4962544;28;20521;-46
2023/03/08 08:44:26;;;;;;;16.85;10.48;;;6.20;58.80;;;;;;4961914;28;20490;-45
2023/03/08 08:46:54;;;;;;;17.55;9.55;;;6.20;58.70;;;;;;4963630;28;20055;-51
2023/03/08 08:49:22;;;;;;;14.63;10.00;;;6.20;58.60;;;;;;4960866;28;21987;-46
2023/03/08 08:51:51;;;;;;;16.08;10.10;;;6.30;58.60;;;;;;4961895;28;20521;-53
2023/03/08 08:54:18;;;;;;;14.05;8.80;;;6.30;58.60;;;;;;4961531;28;20062;-47
2023/03/08 08:56:45;;;;;;;16.30;10.20;;;6.30;58.60;;;;;;4955801;28;20058;-51
2023/03/08 08:59:15;;;;;;;17.90;10.45;;;6.30;58.60;;;;;;4957298;28;20055;-46
2023/03/08 09:01:43;;;;;;;15.10;10.25;;;6.30;58.60;;;;;;4955323;28;20078;-48
2023/03/08 09:04:12;;;;;;;16.75;10.10;;;6.30;58.50;;;;;;4962447;28;21039;-46
2023/03/08 09:06:40;;;;;;;15.27;9.30;;;6.40;58.50;;;;;;4962211;28;20058;-50
2023/03/08 09:09:08;;;;;;;13.90;9.32;;;6.30;58.60;;;;;;4957870;28;20135;-48
2023/03/08 09:11:35;;;;;;;14.57;9.43;;;6.40;58.60;;;;;;4960719;28;20070;-45
2023/03/08 09:14:02;;;;;;;15.32;10.23;;;6.40;58.60;;;;;;4962188;28;20506;-48
2023/03/08 09:16:32;;;;;;;15.05;9.25;;;6.40;58.60;;;;;;4962057;28;20058;-49
2023/03/08 09:19:01;;;;;;;16.10;9.70;;;6.40;58.70;;;;;;4961776;28;20073;-45
2023/03/08 09:21:30;;;;;;;15.73;10.40;;;6.50;58.60;;;;;;4958791;28;20081;-47
2023/03/08 09:24:01;;;;;;;18.40;10.15;;;6.50;58.60;;;;;;4960945;28;20070;-52
2023/03/08 09:26:30;;;;;;;14.57;9.57;;;6.50;58.40;;;;;;4959141;28;20058;-46
2023/03/08 09:29:03;;;;;;;15.32;9.93;;;6.50;58.40;;;;;;4961966;28;20055;-45
2023/03/08 09:31:31;;;;;;;14.90;8.60;;;6.50;58.30;;;;;;4958189;28;20544;-48
2023/03/08 09:33:58;;;;;;;12.90;7.88;;;6.60;58.30;;;;;;4959326;28;20497;-49
2023/03/08 09:36:27;;;;;;;14.88;8.90;;;6.60;58.20;;;;;;4961408;28;20057;-50
2023/03/08 09:38:55;;;;;;;14.60;8.90;;;6.50;58.20;;;;;;4961900;28;20055;-49
2023/03/08 09:41:56;;;;;;;12.60;8.57;;;6.50;58.30;;;;;;4960660;28;20058;-48
2023/03/08 09:44:51;;;;;;;11.40;8.07;;;6.50;58.30;;;;;;4953192;28;20070;-53
2023/03/08 09:47:29;;;;;;;11.10;7.63;;;6.60;58.40;;;;;;4960039;28;20047;-46
2023/03/08 09:50:04;;;;;;;13.18;8.60;;;6.60;58.40;;;;;;4958743;28;20055;-50
2023/03/08 09:52:37;;;;;;;11.90;7.40;;;6.60;58.40;;;;;;4958333;28;20055;-46
2023/03/08 09:55:11;;;;;;;11.55;8.18;;;6.60;58.40;;;;;;4960302;28;20055;-48
2023/03/08 09:57:44;;;;;;;;;;;6.60;58.40;;;;;;4958096;28;20065;-46
2023/03/08 10:00:20;;;;;;;9.43;6.07;;;6.70;58.40;;;;;;4960307;28;19937;-46
2023/03/08 10:02:55;;;;;;;9.80;7.03;;;6.70;58.30;;;;;;4958820;28;20055;-45
2023/03/08 10:05:24;;;;;;;11.13;7.53;;;6.70;58.30;;;;;;4959803;28;20046;-47
2023/03/08 10:07:57;;;;;;;8.95;6.43;;;6.70;58.30;;;;;;4961573;28;20051;-52
2023/03/08 10:10:36;;;;;;;9.43;6.77;;;6.70;58.30;;;;;;4960471;28;20063;-53
2023/03/08 10:13:28;;;;;;;10.02;7.10;;;6.70;58.30;;;;;;4957053;28;20069;-46
2023/03/08 10:16:04;;;;;;;10.90;7.22;;;6.70;58.30;;;;;;4958204;28;20533;-47
2023/03/08 10:18:39;;;;;;;8.35;6.35;;;6.80;58.40;;;;;;4958129;28;20403;-47
2023/03/08 10:21:09;;;;;;;10.55;6.55;;;6.80;58.40;;;;;;4953796;28;20061;-55
2023/03/08 10:23:40;;;;;;;11.50;6.82;;;6.80;58.40;;;;;;4957926;28;20061;-47
2023/03/08 10:26:11;;;;;;;11.20;7.28;;;6.80;58.40;;;;;;4957361;28;20062;-49
2023/03/08 10:28:40;;;;;;;10.73;7.28;;;6.80;58.50;;;;;;4960985;28;20046;-48
2023/03/08 10:31:20;;;;;;;10.23;7.18;;;6.90;58.50;;;;;;4960671;28;20059;-46
2023/03/08 10:33:50;;;;;;;11.18;7.38;;;6.90;58.50;;;;;;4957866;28;20062;-49
2023/03/08 10:36:19;;;;;;;13.93;8.20;;;6.90;58.50;;;;;;4959499;28;20046;-50
2023/03/08 10:38:58;;;;;;;11.85;7.95;;;6.90;58.40;;;;;;4960386;28;20055;-45
2023/03/08 10:41:27;;;;;;;13.90;7.60;;;6.90;58.50;;;;;;4961419;28;20398;-46
2023/03/08 10:43:57;;;;;;;12.20;8.38;;;7.00;58.50;;;;;;4957194;28;20063;-49
2023/03/08 10:46:27;;;;;;;15.05;8.48;;;7.00;58.50;;;;;;4958611;28;20058;-53
2023/03/08 10:48:54;;;;;;;10.52;7.15;;;7.00;58.50;;;;;;4959173;28;20051;-50
2023/03/08 10:51:24;;;;;;;11.65;6.95;;;7.00;58.50;;;;;;4957785;28;20047;-47
2023/03/08 10:53:56;;;;;;;10.05;7.10;;;7.10;59.00;;;;;;4960520;28;20062;-46
2023/03/08 10:56:26;;;;;;;10.10;7.00;;;7.10;58.60;;;;;;4956588;28;20050;-46
2023/03/08 10:58:59;;;;;;;10.45;6.97;;;7.10;58.60;;;;;;4957505;28;20415;-47
2023/03/08 11:01:29;;;;;;;11.17;6.93;;;7.20;58.60;;;;;;4959106;28;20050;-46
2023/03/08 11:04:01;;;;;;;9.68;6.80;;;7.20;58.60;;;;;;4959047;28;20069;-46
2023/03/08 11:06:29;;;;;;;9.45;6.70;;;7.20;58.60;;;;;;4957282;28;20054;-50
2023/03/08 11:08:58;;;;;;;12.27;7.15;;;7.30;58.60;;;;;;4957613;28;20562;-47
2023/03/08 11:11:26;;;;;;;10.88;6.82;;;7.30;58.50;;;;;;4958449;28;20059;-47
2023/03/08 11:13:55;;;;;;;11.60;7.32;;;7.40;58.50;;;;;;4955499;28;20073;-50
2023/03/08 11:16:45;;;;;;;10.27;7.05;;;7.40;58.50;;;;;;4960318;28;20054;-46
2023/03/08 11:19:32;;;;;;;11.25;6.82;;;7.40;58.50;;;;;;4958788;28;20182;-47
2023/03/08 11:22:10;;;;;;;9.77;6.53;;;7.40;58.40;;;;;;4958448;28;20442;-47
2023/03/08 11:25:00;;;;;;;11.13;6.85;;;7.50;58.40;;;;;;4954454;28;20069;-48
2023/03/08 11:27:38;;;;;;;10.40;6.93;;;7.50;58.30;;;;;;4958295;28;20059;-48
2023/03/08 11:30:18;;;;;;;11.50;8.05;;;7.60;58.30;;;;;;4957600;28;20653;-46
2023/03/08 11:33:09;;;;;;;11.07;7.47;;;7.60;58.30;;;;;;4959526;28;20061;-46
2023/03/08 11:35:45;;;;;;;10.40;6.80;;;7.60;58.40;;;;;;4959846;28;20069;-49
2023/03/08 11:38:19;;;;;;;10.18;7.25;;;7.60;58.40;;;;;;4959585;28;20054;-49
2023/03/08 11:40:56;;;;;;;10.82;7.53;;;7.60;58.40;;;;;;4959005;28;20798;-47
2023/03/08 11:43:40;;;;;;;12.13;8.60;;;7.70;58.50;;;;;;4958146;28;20498;-46
2023/03/08 11:46:16;;;;;;;11.82;7.95;;;7.70;58.50;;;;;;4958870;28;20058;-46
2023/03/08 11:49:09;;;;;;;9.73;6.50;;;7.80;58.70;;;;;;4957216;28;20077;-46
2023/03/08 11:51:44;;;;;;;10.20;6.93;;;7.80;58.70;;;;;;4947055;28;20059;-47
2023/03/08 11:54:17;;;;;;;11.20;7.57;;;7.90;58.70;;;;;;4954971;28;20058;-50
2023/03/08 11:56:47;;;;;;;11.00;7.35;;;8.00;58.70;;;;;;4959030;28;21439;-46
2023/03/08 11:59:24;;;;;;;10.18;7.57;;;8.00;58.60;;;;;;4958987;28;20066;-46
2023/03/08 12:01:57;;;;;;;10.48;8.00;;;8.00;58.70;;;;;;4956236;28;20058;-46
2023/03/08 12:04:31;;;;;;;9.02;6.53;;;8.10;58.70;;;;;;4958027;28;20059;-46
2023/03/08 12:07:02;;;;;;;11.88;6.72;;;8.20;58.60;;;;;;4960590;28;20487;-54
2023/03/08 12:09:34;;;;;;;14.30;8.73;;;8.20;58.50;;;;;;4957844;28;20069;-50
2023/03/08 12:12:08;;;;;;;12.50;8.07;;;8.20;58.50;;;;;;4958230;28;20355;-45
2023/03/08 12:14:43;;;;;;;14.25;10.45;;;8.30;58.40;;;;;;4959530;28;20066;-47
2023/03/08 12:17:18;;;;;;;20.20;10.30;;;8.30;58.50;;;;;;4957242;28;20061;-49
2023/03/08 12:19:49;;;;;;;12.15;8.10;;;8.40;58.50;;;;;;4959073;28;20055;-45
2023/03/08 12:22:41;;;;;;;10.52;7.28;;;8.40;58.50;;;;;;4951257;28;21236;-52
2023/03/08 12:25:17;;;;;;;9.55;7.25;;;8.40;58.40;;;;;;4954764;28;20502;-46
2023/03/08 12:27:47;;;;;;;21.70;13.27;;;8.40;58.40;;;;;;4962825;28;20055;-45
2023/03/08 12:30:23;;;;;;;12.02;7.10;;;8.50;58.40;;;;;;4963407;28;20059;-47
2023/03/08 12:32:53;;;;;;;19.13;12.40;;;8.50;58.40;;;;;;4962115;28;20072;-45
2023/03/08 12:35:28;;;;;;;11.50;7.55;;;8.60;58.40;;;;;;4964824;28;20066;-48
2023/03/08 12:37:57;;;;;;;10.00;6.38;;;8.60;58.40;;;;;;4962701;28;20051;-47
2023/03/08 12:40:34;;;;;;;8.57;6.43;;;8.60;58.30;;;;;;4963206;28;20065;-51
2023/03/08 12:43:07;;;;;;;8.88;6.75;;;8.70;58.30;;;;;;4964539;28;20063;-46
2023/03/08 12:45:35;;;;;;;7.82;5.93;;;8.70;58.20;;;;;;4965389;28;20058;-49
2023/03/08 12:48:16;;;;;;;8.60;5.05;;;8.80;58.10;;;;;;4964793;28;20051;-46
2023/03/08 12:50:59;;;;;;;10.00;6.85;;;8.80;57.90;;;;;;4963822;28;20055;-48
2023/03/08 12:53:32;;;;;;;9.63;6.00;;;8.90;57.80;;;;;;4962857;28;20055;-47
2023/03/08 12:56:03;;;;;;;8.05;6.03;;;8.90;57.80;;;;;;4963923;28;20459;-47
2023/03/08 12:58:32;;;;;;;7.53;6.15;;;8.90;57.90;;;;;;4964791;28;21472;-46
2023/03/08 13:01:01;;;;;;;8.13;5.40;;;8.90;57.80;;;;;;4964828;28;20058;-48
2023/03/08 13:03:36;;;;;;;8.65;6.43;;;8.90;57.70;;;;;;4964885;28;20054;-51
2023/03/08 13:06:31;;;;;;;6.15;4.85;;;9.00;57.70;;;;;;4965224;28;20817;-44
2023/03/08 13:09:00;;;;;;;;;;;9.00;57.60;;;;;;4965075;28;20760;-45
2023/03/08 13:11:38;;;;;;;6.95;5.00;;;9.00;57.60;;;;;;4964130;28;19926;-48